Time;durP1;ratioP1;P1;durP2;ratioP2;P2;SDS_P1;SDS_P2;PMS_P1;PMS_P2;Temp;Humidity;BMP_temperature;BMP_pressure;BME280_temperature;BME280_humidity;BME280_pressure;Samples;Min_cycle;Max_cycle;Signal;HPM_P1;HPM_P2
2023/07/07 00:03:42;;;;;;;10.30;4.22;;;;;;;-147.65;100.00;57646.63;10325800;28;20433;-82
2023/07/07 00:08:44;;;;;;;8.40;4.95;;;;;;;-147.65;100.00;57646.63;10328370;28;20035;-82
2023/07/07 00:13:44;;;;;;;9.65;5.47;;;;;;;-147.65;100.00;57646.63;10323915;28;20101;-82
2023/07/07 00:18:45;;;;;;;8.88;5.28;;;;;;;-147.65;100.00;57646.63;10327311;28;20116;-82
2023/07/07 00:23:45;;;;;;;6.40;5.10;;;;;;;-147.65;100.00;57646.63;10325720;28;20512;-83
2023/07/07 00:28:46;;;;;;;9.45;5.00;;;;;;;-147.65;100.00;57646.63;10326494;28;20042;-83
2023/07/07 00:33:47;;;;;;;5.78;4.22;;;;;;;-147.65;100.00;57646.63;10324223;28;20116;-82
2023/07/07 00:38:47;;;;;;;9.90;5.22;;;;;;;-147.65;100.00;57646.63;10325989;28;20043;-83
2023/07/07 00:44:06;;;;;;;8.57;4.97;;;;;;;-147.65;100.00;57646.63;10325514;28;20073;-83
2023/07/07 00:49:12;;;;;;;10.90;5.05;;;;;;;-147.65;100.00;57646.63;10324595;28;20045;-83
2023/07/07 00:54:16;;;;;;;9.23;5.45;;;;;;;-147.65;100.00;57646.63;10308482;28;20129;-83
2023/07/07 00:59:20;;;;;;;7.15;4.80;;;;;;;-147.65;100.00;57646.63;10322814;28;20054;-83
2023/07/07 01:04:20;;;;;;;8.20;5.47;;;;;;;-147.65;100.00;57646.63;10323995;28;20052;-82
2023/07/07 01:09:21;;;;;;;10.82;6.28;;;;;;;-147.65;100.00;57646.63;10321980;28;20059;-83
2023/07/07 01:14:23;;;;;;;10.90;6.93;;;;;;;-147.65;100.00;57646.63;10322753;28;20060;-84
2023/07/07 01:20:00;;;;;;;14.33;7.60;;;;;;;-147.65;100.00;57646.63;10364213;28;20049;-84
2023/07/07 01:25:26;;;;;;;10.10;6.50;;;;;;;-147.65;100.00;57646.63;10363830;28;20261;-84
2023/07/07 01:30:55;;;;;;;11.60;7.30;;;;;;;-147.65;100.00;57646.63;10362811;28;20065;-83
2023/07/07 01:35:55;;;;;;;8.63;6.13;;;;;;;-147.65;100.00;57646.63;10362347;28;20077;-83
2023/07/07 01:41:30;;;;;;;8.32;6.22;;;;;;;-147.65;100.00;57646.63;10364454;28;20042;-83
2023/07/07 01:46:36;;;;;;;9.82;5.80;;;;;;;-147.65;100.00;57646.63;10364198;28;20054;-83
2023/07/07 01:51:50;;;;;;;9.77;6.35;;;;;;;-147.65;100.00;57646.63;10346198;28;20498;-83
2023/07/07 01:56:51;;;;;;;10.70;6.15;;;;;;;-147.65;100.00;57646.63;10363493;28;20045;-82
2023/07/07 02:01:51;;;;;;;11.25;6.30;;;;;;;-147.65;100.00;57646.63;10362077;28;20045;-83
2023/07/07 02:06:52;;;;;;;11.52;5.60;;;;;;;-147.65;100.00;57646.63;10363413;28;20048;-84
2023/07/07 02:11:52;;;;;;;12.77;7.68;;;;;;;-147.65;100.00;57646.63;10361743;28;20041;-83
2023/07/07 02:16:53;;;;;;;13.32;6.38;;;;;;;-147.65;100.00;57646.63;10359402;28;20040;-84
2023/07/07 02:21:53;;;;;;;7.18;5.50;;;;;;;-147.65;100.00;57646.63;10360925;28;20042;-84
2023/07/07 02:26:54;;;;;;;9.50;6.50;;;;;;;-147.65;100.00;57646.63;10360025;28;20502;-83
2023/07/07 02:31:54;;;;;;;10.57;5.57;;;;;;;-147.65;100.00;57646.63;10361086;28;20052;-83
2023/07/07 02:36:55;;;;;;;10.27;6.38;;;;;;;-147.65;100.00;57646.63;10360674;28;20042;-83
2023/07/07 02:41:56;;;;;;;10.90;6.15;;;;;;;-147.65;100.00;57646.63;10360719;28;20466;-82
2023/07/07 02:46:56;;;;;;;9.60;6.25;;;;;;;-147.65;100.00;57646.63;10361301;28;20175;-82
2023/07/07 02:51:57;;;;;;;10.57;8.15;;;;;;;-147.65;100.00;57646.63;10361169;28;20077;-83
2023/07/07 02:56:57;;;;;;;9.63;6.63;;;;;;;-147.65;100.00;57646.63;10358146;28;20044;-84
2023/07/07 03:01:58;;;;;;;14.85;5.80;;;;;;;-147.65;100.00;57646.63;10361926;28;20435;-83
2023/07/07 03:06:59;;;;;;;11.07;7.40;;;;;;;-147.65;100.00;57646.63;10357780;28;20709;-83
2023/07/07 03:11:59;;;;;;;12.18;6.88;;;;;;;-147.65;100.00;57646.63;10361644;28;20042;-84
2023/07/07 03:17:00;;;;;;;12.90;7.22;;;;;;;-147.65;100.00;57646.63;10359746;28;20128;-84
2023/07/07 03:22:00;;;;;;;12.93;7.78;;;;;;;-147.65;100.00;57646.63;10360751;28;20120;-84
2023/07/07 03:27:02;;;;;;;10.68;7.25;;;;;;;-147.65;100.00;57646.63;10360256;28;20111;-83
2023/07/07 03:32:03;;;;;;;15.90;7.90;;;;;;;-147.65;100.00;57646.63;10359970;28;20053;-85
2023/07/07 03:37:04;;;;;;;12.32;7.22;;;;;;;-147.65;100.00;57646.63;10359859;28;20303;-83
2023/07/07 03:42:08;;;;;;;10.40;8.07;;;;;;;-147.65;100.00;57646.63;10357892;28;20072;-84
2023/07/07 03:47:14;;;;;;;14.70;8.00;;;;;;;-147.65;100.00;57646.63;10357748;28;20034;-83
2023/07/07 03:52:15;;;;;;;12.00;8.75;;;;;;;-147.65;100.00;57646.63;10354224;28;20045;-83
2023/07/07 03:57:15;;;;;;;14.75;9.10;;;;;;;-147.65;100.00;57646.63;10358935;28;20132;-83
2023/07/07 04:02:16;;;;;;;14.00;9.23;;;;;;;-147.65;100.00;57646.63;10359408;28;20177;-83
2023/07/07 04:07:17;;;;;;;14.75;9.32;;;;;;;-147.65;100.00;57646.63;10362164;28;20045;-79
2023/07/07 04:12:17;;;;;;;13.85;10.15;;;;;;;-147.65;100.00;57646.63;10358504;28;20038;-79
2023/07/07 04:17:18;;;;;;;13.98;9.30;;;;;;;-147.65;100.00;57646.63;10357676;28;20041;-81
2023/07/07 04:22:18;;;;;;;14.88;9.43;;;;;;;-147.65;100.00;57646.63;10364309;28;20056;-80
2023/07/07 04:27:19;;;;;;;14.50;9.40;;;;;;;-147.65;100.00;57646.63;10357356;28;20064;-82
2023/07/07 04:32:19;;;;;;;13.43;8.05;;;;;;;-147.65;100.00;57646.63;10340120;28;20042;-82
2023/07/07 04:37:20;;;;;;;14.30;9.10;;;;;;;-147.65;100.00;57646.63;10355092;28;20046;-83
2023/07/07 04:42:21;;;;;;;15.40;8.77;;;;;;;-147.65;100.00;57646.63;10361238;28;20519;-83
2023/07/07 04:47:21;;;;;;;10.75;7.13;;;;;;;-147.65;100.00;57646.63;10363546;28;20049;-83
2023/07/07 04:52:22;;;;;;;8.90;7.03;;;;;;;-147.65;100.00;57646.63;10365038;28;20104;-81
2023/07/07 04:57:23;;;;;;;9.88;7.30;;;;;;;-147.65;100.00;57646.63;10365059;28;20408;-84
2023/07/07 05:02:23;;;;;;;12.63;8.05;;;;;;;-147.65;100.00;57646.63;10365797;28;20038;-85
2023/07/07 05:07:25;;;;;;;12.20;7.43;;;;;;;-147.65;100.00;57646.63;10361311;28;20042;-84
2023/07/07 05:12:26;;;;;;;9.80;5.63;;;;;;;-147.65;100.00;57646.63;10384423;28;20068;-80
2023/07/07 05:17:26;;;;;;;9.95;4.72;;;;;;;-147.65;100.00;57646.63;10363555;28;20037;-80
2023/07/07 05:22:27;;;;;;;8.57;5.45;;;;;;;-147.65;100.00;57646.63;10364679;28;20042;-79
2023/07/07 05:27:27;;;;;;;8.07;4.55;;;;;;;-147.65;100.00;57646.63;10357729;28;20551;-81
2023/07/07 05:32:28;;;;;;;6.70;4.28;;;;;;;-147.65;100.00;57646.63;10341751;28;20042;-82
2023/07/07 05:37:28;;;;;;;7.38;5.18;;;;;;;-147.65;100.00;57646.63;10361081;28;20112;-82
2023/07/07 05:42:29;;;;;;;8.38;5.10;;;;;;;-147.65;100.00;57646.63;10361443;28;20057;-80
2023/07/07 05:47:30;;;;;;;8.48;5.43;;;;;;;-147.65;100.00;57646.63;10363373;28;20065;-79
2023/07/07 05:52:30;;;;;;;10.35;5.35;;;;;;;-147.65;100.00;57646.63;10361721;28;20034;-79
2023/07/07 05:57:31;;;;;;;11.85;5.32;;;;;;;-147.65;100.00;57646.63;10362868;28;20053;-79
2023/07/07 06:02:32;;;;;;;7.60;4.53;;;;;;;-147.65;100.00;57646.63;10342884;28;20088;-78
2023/07/07 06:07:32;;;;;;;7.43;4.63;;;;;;;-147.65;100.00;57646.63;10342224;28;20414;-80
2023/07/07 06:12:35;;;;;;;5.55;4.05;;;;;;;-147.65;100.00;57646.63;10361769;28;20068;-79
2023/07/07 06:17:36;;;;;;;8.32;5.05;;;;;;;-147.65;100.00;57646.63;10363139;28;20169;-79
2023/07/07 06:22:36;;;;;;;5.28;3.70;;;;;;;-147.65;100.00;57646.63;10360997;28;20038;-80
2023/07/07 06:27:37;;;;;;;5.73;3.63;;;;;;;-147.65;100.00;57646.63;10360045;28;20038;-81
2023/07/07 06:32:37;;;;;;;7.73;3.60;;;;;;;-147.65;100.00;57646.63;10357492;28;20042;-81
2023/07/07 06:37:38;;;;;;;5.80;2.70;;;;;;;-147.65;100.00;57646.63;10339599;28;20505;-82
2023/07/07 06:42:38;;;;;;;9.70;3.40;;;;;;;-147.65;100.00;57646.63;10360702;28;20120;-81
2023/07/07 06:47:39;;;;;;;5.77;3.50;;;;;;;-147.65;100.00;57646.63;10360933;28;20045;-82
2023/07/07 06:52:39;;;;;;;12.87;3.40;;;;;;;-147.65;100.00;57646.63;10357847;28;20041;-81
2023/07/07 06:57:40;;;;;;;10.23;3.00;;;;;;;-147.65;100.00;57646.63;10343039;28;20412;-81
2023/07/07 07:02:41;;;;;;;5.50;2.83;;;;;;;-147.65;100.00;57646.63;10357016;28;20052;-80
2023/07/07 07:07:42;;;;;;;4.07;2.30;;;;;;;-147.65;100.00;57646.63;10320054;28;20081;-83
2023/07/07 07:12:42;;;;;;;4.00;2.20;;;;;;;-147.65;100.00;57646.63;10364651;28;20030;-82
2023/07/07 07:17:43;;;;;;;5.03;2.92;;;;;;;-147.65;100.00;57646.63;10351553;28;20061;-80
2023/07/07 07:22:44;;;;;;;4.40;2.77;;;;;;;-147.65;100.00;57646.63;10338367;28;20042;-82
2023/07/07 07:27:44;;;;;;;6.95;2.78;;;;;;;-147.65;100.00;57646.63;10358505;28;20096;-83
2023/07/07 07:32:45;;;;;;;8.80;3.45;;;;;;;-147.65;100.00;57646.63;10339827;28;20049;-82
2023/07/07 07:37:45;;;;;;;;;;;;;;;-147.65;100.00;57646.63;10360441;28;20050;-82
2023/07/07 07:42:46;;;;;;;4.53;2.20;;;;;;;-147.65;100.00;57646.63;10361162;28;19917;-82
2023/07/07 07:47:46;;;;;;;;;;;;;;;-147.65;100.00;57646.63;10356118;28;20702;-83
2023/07/07 07:52:47;;;;;;;6.70;2.80;;;;;;;-147.65;100.00;57646.63;10332741;28;19932;-82
2023/07/07 07:57:47;;;;;;;;;;;;;;;-147.65;100.00;57646.63;10348157;28;20132;-79
2023/07/07 08:02:48;;;;;;;6.07;2.23;;;;;;;-147.65;100.00;57646.63;10356242;28;20321;-79
2023/07/07 08:07:48;;;;;;;;;;;;;;;-147.65;100.00;57646.63;10362138;28;20098;-79
2023/07/07 08:12:49;;;;;;;5.30;2.50;;;;;;;-147.65;100.00;57646.63;10359354;28;20082;-78
2023/07/07 08:17:50;;;;;;;4.90;2.17;;;;;;;-147.65;100.00;57646.63;10362421;28;20033;-77
2023/07/07 08:22:50;;;;;;;6.93;2.38;;;;;;;-147.65;100.00;57646.63;10366452;28;20038;-81
2023/07/07 08:27:53;;;;;;;9.50;2.67;;;;;;;-147.65;100.00;57646.63;10368035;28;20053;-84
2023/07/07 08:32:54;;;;;;;5.57;2.38;;;;;;;-147.65;100.00;57646.63;10343176;28;20121;-87
2023/07/07 08:37:55;;;;;;;5.03;2.40;;;;;;;-147.65;100.00;57646.63;10359042;28;20045;-89
2023/07/07 08:42:55;;;;;;;4.80;2.05;;;;;;;-147.65;100.00;57646.63;10351700;28;20129;-82
2023/07/07 08:48:05;;;;;;;4.03;1.40;;;;;;;-147.65;100.00;57646.63;10362915;28;20516;-83
2023/07/07 08:53:37;;;;;;;6.90;2.70;;;;;;;-147.65;100.00;57646.63;10367838;28;20038;-85
2023/07/07 08:59:02;;;;;;;7.13;2.50;;;;;;;-147.65;100.00;57646.63;10316072;28;20482;-82
2023/07/07 09:04:14;;;;;;;4.18;2.42;;;;;;;-147.65;100.00;57646.63;10356181;28;20042;-89
2023/07/07 09:09:18;;;;;;;5.43;2.92;;;;;;;-147.65;100.00;57646.63;10313754;28;20465;-89
2023/07/07 09:14:21;;;;;;;4.30;1.80;;;;;;;-147.65;100.00;57646.63;10231846;28;20050;-88
2023/07/07 09:19:28;;;;;;;5.57;1.80;;;;;;;-147.65;100.00;57646.63;10294572;28;20042;-82
2023/07/07 09:24:31;;;;;;;5.07;2.47;;;;;;;-147.65;100.00;57646.63;10298564;28;20061;-83
2023/07/07 09:29:31;;;;;;;4.50;2.00;;;;;;;-147.65;100.00;57646.63;10282922;28;20038;-83
2023/07/07 09:34:32;;;;;;;4.85;2.10;;;;;;;-147.65;100.00;57646.63;10281522;28;20058;-82
2023/07/07 09:39:33;;;;;;;9.02;2.10;;;;;;;-147.65;100.00;57646.63;10298048;28;20493;-79
2023/07/07 09:44:45;;;;;;;;;;;;;;;-147.65;100.00;57646.63;10322388;28;20042;-79
2023/07/07 09:49:49;;;;;;;3.60;1.88;;;;;;;-147.65;100.00;57646.63;10320585;28;19953;-80
2023/07/07 09:54:50;;;;;;;7.03;2.53;;;;;;;-147.65;100.00;57646.63;10298878;28;20042;-80
2023/07/07 09:59:50;;;;;;;6.35;2.30;;;;;;;-147.65;100.00;57646.63;10290038;28;20387;-79
2023/07/07 10:04:56;;;;;;;;;;;;;;;-147.65;100.00;57646.63;10315120;28;20149;-82
2023/07/07 10:09:58;;;;;;;4.60;2.45;;;;;;;-147.65;100.00;57646.63;10321331;28;19918;-83
2023/07/07 10:14:59;;;;;;;4.35;2.00;;;;;;;-147.65;100.00;57646.63;10315726;28;20034;-81
2023/07/07 10:19:59;;;;;;;;;;;;;;;-147.65;100.00;57646.63;10321439;28;20402;-80
2023/07/07 10:25:00;;;;;;;3.00;1.83;;;;;;;-147.65;100.00;57646.63;10341610;28;20012;-81
2023/07/07 10:30:00;;;;;;;;;;;;;;;-147.65;100.00;57646.63;10342944;28;20931;-82
2023/07/07 10:35:02;;;;;;;3.17;2.20;;;;;;;-147.65;100.00;57646.63;10352300;28;19936;-82
2023/07/07 10:40:03;;;;;;;7.97;2.20;;;;;;;-147.65;100.00;57646.63;10360026;28;20037;-81
2023/07/07 10:45:04;;;;;;;7.13;3.10;;;;;;;-147.65;100.00;57646.63;10335948;28;20041;-80
2023/07/07 10:50:11;;;;;;;6.15;2.40;;;;;;;-147.65;100.00;57646.63;10357232;28;20034;-84
2023/07/07 10:55:21;;;;;;;5.53;2.90;;;;;;;-147.65;100.00;57646.63;10332053;28;20125;-80
2023/07/07 11:00:40;;;;;;;7.68;2.25;;;;;;;-147.65;100.00;57646.63;10355149;28;20041;-81
2023/07/07 11:05:43;;;;;;;6.57;3.13;;;;;;;-147.65;100.00;57646.63;10350298;28;20042;-83
2023/07/07 11:10:58;;;;;;;6.25;2.67;;;;;;;-147.65;100.00;57646.63;10344992;28;20100;-82
2023/07/07 11:16:31;;;;;;;5.22;2.42;;;;;;;-147.65;100.00;57646.63;10352386;28;20057;-83
2023/07/07 11:21:51;;;;;;;6.53;2.53;;;;;;;-147.65;100.00;57646.63;10329690;28;20034;-81
2023/07/07 11:27:20;;;;;;;6.33;2.73;;;;;;;-147.65;100.00;57646.63;10327563;28;20066;-82
2023/07/07 11:32:43;;;;;;;3.92;2.65;;;;;;;-147.65;100.00;57646.63;10340479;28;20053;-80
2023/07/07 11:38:02;;;;;;;5.18;2.50;;;;;;;-147.65;100.00;57646.63;10327658;28;20041;-83
2023/07/07 11:43:22;;;;;;;6.22;3.22;;;;;;;-147.65;100.00;57646.63;10353091;28;20038;-81
2023/07/07 11:48:37;;;;;;;9.73;3.63;;;;;;;-147.65;100.00;57646.63;10349815;28;20037;-79
2023/07/07 11:53:50;;;;;;;5.97;2.88;;;;;;;-147.65;100.00;57646.63;10352994;28;20044;-79
2023/07/07 11:59:12;;;;;;;5.63;2.65;;;;;;;-147.65;100.00;57646.63;10347473;28;20073;-78
2023/07/07 12:04:24;;;;;;;7.80;3.03;;;;;;;-147.65;100.00;57646.63;10357526;28;20537;-78
2023/07/07 12:09:36;;;;;;;4.68;2.45;;;;;;;-147.65;100.00;57646.63;10355222;28;20071;-78
2023/07/07 12:15:14;;;;;;;10.55;3.22;;;;;;;-147.65;100.00;57646.63;10340312;28;20129;-78
2023/07/07 12:20:22;;;;;;;7.53;3.30;;;;;;;-147.65;100.00;57646.63;10353841;28;20575;-80
2023/07/07 12:25:25;;;;;;;6.28;3.40;;;;;;;-147.65;100.00;57646.63;10333626;28;20060;-80
2023/07/07 12:30:30;;;;;;;5.07;3.78;;;;;;;-147.65;100.00;57646.63;10335338;28;20128;-79
2023/07/07 12:35:58;;;;;;;6.68;3.03;;;;;;;-147.65;100.00;57646.63;10336807;28;20033;-81
2023/07/07 12:41:14;;;;;;;5.80;3.15;;;;;;;-147.65;100.00;57646.63;10349082;28;20034;-78
2023/07/07 12:46:28;;;;;;;5.20;3.33;;;;;;;-147.65;100.00;57646.63;10350382;28;20057;-80
2023/07/07 12:51:29;;;;;;;5.25;2.88;;;;;;;-147.65;100.00;57646.63;10336517;28;20038;-79
2023/07/07 12:56:31;;;;;;;5.80;2.60;;;;;;;-147.65;100.00;57646.63;10331610;28;20040;-79
2023/07/07 13:01:39;;;;;;;6.25;3.72;;;;;;;-147.65;100.00;57646.63;10330401;28;20077;-80
2023/07/07 13:07:03;;;;;;;5.90;3.17;;;;;;;-147.65;100.00;57646.63;10346745;28;20038;-78
2023/07/07 13:12:52;;;;;;;6.20;4.05;;;;;;;-147.65;100.00;57646.63;10347600;28;20137;-79
2023/07/07 13:17:54;;;;;;;4.53;2.85;;;;;;;-147.65;100.00;57646.63;10313959;28;21403;-79
2023/07/07 13:23:28;;;;;;;6.70;3.00;;;;;;;-147.65;100.00;57646.63;10337379;28;20603;-81
2023/07/07 13:28:29;;;;;;;7.88;4.10;;;;;;;-147.65;100.00;57646.63;10334492;28;20076;-79
2023/07/07 13:33:30;;;;;;;6.25;3.67;;;;;;;-147.65;100.00;57646.63;10323650;28;20096;-81
2023/07/07 13:38:43;;;;;;;7.30;4.05;;;;;;;-147.65;100.00;57646.63;10337626;28;20076;-81
2023/07/07 13:43:45;;;;;;;7.82;3.90;;;;;;;-147.65;100.00;57646.63;10355577;28;20517;-80
2023/07/07 13:48:53;;;;;;;8.52;3.00;;;;;;;-147.65;100.00;57646.63;10291578;28;20380;-82
2023/07/07 13:53:54;;;;;;;4.60;3.03;;;;;;;-147.65;100.00;57646.63;10305936;28;20089;-81
2023/07/07 13:58:54;;;;;;;;;;;;;;;-147.65;100.00;57646.63;10332640;28;20441;-82
2023/07/07 14:03:57;;;;;;;6.03;2.87;;;;;;;-147.65;100.00;57646.63;10332839;28;19922;-81
2023/07/07 14:08:57;;;;;;;8.52;2.97;;;;;;;-147.65;100.00;57646.63;10326676;28;20044;-83
2023/07/07 14:13:58;;;;;;;;;;;;;;;-147.65;100.00;57646.63;10364321;28;20489;-83
2023/07/07 14:19:08;;;;;;;4.57;2.55;;;;;;;-147.65;100.00;57646.63;10359808;28;20020;-83
2023/07/07 14:24:16;;;;;;;7.65;3.53;;;;;;;-147.65;100.00;57646.63;10344387;28;20478;-84
2023/07/07 14:29:18;;;;;;;5.50;3.15;;;;;;;-147.65;100.00;57646.63;10344384;28;20045;-84
2023/07/07 14:34:19;;;;;;;6.72;3.88;;;;;;;-147.65;100.00;57646.63;10325096;28;20046;-83
2023/07/07 14:39:24;;;;;;;7.68;3.38;;;;;;;-147.65;100.00;57646.63;10332141;28;20460;-83
2023/07/07 14:44:57;;;;;;;5.07;3.17;;;;;;;-147.65;100.00;57646.63;10360875;28;20041;-83
2023/07/07 14:50:02;;;;;;;5.80;3.10;;;;;;;-147.65;100.00;57646.63;10339106;28;20038;-85
2023/07/07 14:55:03;;;;;;;6.05;3.05;;;;;;;-147.65;100.00;57646.63;10335710;28;20042;-85
2023/07/07 15:00:26;;;;;;;4.93;3.05;;;;;;;-147.65;100.00;57646.63;10334240;28;20390;-81
2023/07/07 15:05:31;;;;;;;6.97;4.28;;;;;;;-147.65;100.00;57646.63;10355436;28;20529;-81
2023/07/07 15:10:32;;;;;;;7.47;3.35;;;;;;;-147.65;100.00;57646.63;10345708;28;20042;-83
2023/07/07 15:15:32;;;;;;;6.33;3.27;;;;;;;-147.65;100.00;57646.63;10357845;28;20037;-83
2023/07/07 15:20:33;;;;;;;7.20;3.13;;;;;;;-147.65;100.00;57646.63;10342182;28;20572;-83
2023/07/07 15:25:34;;;;;;;6.23;2.87;;;;;;;-147.65;100.00;57646.63;10353838;28;20129;-83
2023/07/07 15:30:34;;;;;;;6.65;4.30;;;;;;;-147.65;100.00;57646.63;10316685;28;20046;-81
2023/07/07 15:35:35;;;;;;;6.17;3.97;;;;;;;-147.65;100.00;57646.63;10325397;28;20420;-82
2023/07/07 15:40:36;;;;;;;7.97;3.33;;;;;;;-147.65;100.00;57646.63;10341352;28;20050;-82
2023/07/07 15:45:36;;;;;;;4.93;2.90;;;;;;;-147.65;100.00;57646.63;10357584;28;20231;-83
2023/07/07 15:50:37;;;;;;;9.90;3.33;;;;;;;-147.65;100.00;57646.63;10339143;28;20034;-83
2023/07/07 15:55:37;;;;;;;5.53;3.23;;;;;;;-147.65;100.00;57646.63;10369854;28;20041;-81
2023/07/07 16:00:41;;;;;;;5.23;3.03;;;;;;;-147.65;100.00;57646.63;10337346;28;20041;-83
2023/07/07 16:05:42;;;;;;;7.32;3.50;;;;;;;-147.65;100.00;57646.63;10334229;28;20038;-83
2023/07/07 16:10:43;;;;;;;6.73;3.67;;;;;;;-147.65;100.00;57646.63;10354416;28;20455;-82
2023/07/07 16:15:43;;;;;;;8.23;3.80;;;;;;;-147.65;100.00;57646.63;10358537;28;20049;-79
2023/07/07 16:20:44;;;;;;;7.47;3.67;;;;;;;-147.65;100.00;57646.63;10355688;28;20045;-81
2023/07/07 16:25:45;;;;;;;6.97;3.65;;;;;;;-147.65;100.00;57646.63;10342964;28;20041;-84
2023/07/07 16:30:45;;;;;;;5.13;3.17;;;;;;;-147.65;100.00;57646.63;10344853;28;20073;-84
2023/07/07 16:35:46;;;;;;;6.53;3.13;;;;;;;-147.65;100.00;57646.63;10349303;28;20050;-82
2023/07/07 16:40:47;;;;;;;9.27;3.77;;;;;;;-147.65;100.00;57646.63;10366544;28;20147;-83
2023/07/07 16:45:47;;;;;;;7.60;4.18;;;;;;;-147.65;100.00;57646.63;10348249;28;20040;-83
2023/07/07 16:50:48;;;;;;;6.33;3.53;;;;;;;-147.65;100.00;57646.63;10366704;28;20136;-84
2023/07/07 16:55:49;;;;;;;5.93;3.20;;;;;;;-147.65;100.00;57646.63;10363889;28;20056;-84
2023/07/07 17:00:49;;;;;;;6.50;3.77;;;;;;;-147.65;100.00;57646.63;10365534;28;20042;-85
2023/07/07 17:05:50;;;;;;;6.40;3.27;;;;;;;-147.65;100.00;57646.63;10366021;28;20469;-86
2023/07/07 17:10:50;;;;;;;8.07;4.07;;;;;;;-147.65;100.00;57646.63;10345114;28;20121;-83
2023/07/07 17:15:51;;;;;;;7.20;4.03;;;;;;;-147.65;100.00;57646.63;10353500;28;20101;-84
2023/07/07 17:20:51;;;;;;;6.70;3.90;;;;;;;-147.65;100.00;57646.63;10322510;28;20073;-84
2023/07/07 17:25:52;;;;;;;4.87;3.10;;;;;;;-147.65;100.00;57646.63;10320337;28;20314;-86
2023/07/07 17:30:52;;;;;;;5.10;2.67;;;;;;;-147.65;100.00;57646.63;10325306;28;20044;-85
2023/07/07 17:35:53;;;;;;;23.13;5.33;;;;;;;-147.65;100.00;57646.63;10375087;28;20037;-88
2023/07/07 17:40:53;;;;;;;9.13;3.23;;;;;;;-147.65;100.00;57646.63;10340479;28;20129;-85
2023/07/07 17:45:54;;;;;;;7.67;3.47;;;;;;;-147.65;100.00;57646.63;10309229;28;20498;-85
2023/07/07 17:50:54;;;;;;;7.70;3.23;;;;;;;-147.65;100.00;57646.63;10350044;28;20049;-87
2023/07/07 17:55:55;;;;;;;8.93;4.07;;;;;;;-147.65;100.00;57646.63;10342624;28;20383;-82
2023/07/07 18:00:56;;;;;;;9.87;3.17;;;;;;;-147.65;100.00;57646.63;10360097;28;20030;-83
2023/07/07 18:05:56;;;;;;;8.30;3.37;;;;;;;-147.65;100.00;57646.63;10364356;28;20076;-82
2023/07/07 18:10:57;;;;;;;5.43;2.53;;;;;;;-147.65;100.00;57646.63;10357801;28;20056;-82
2023/07/07 18:15:57;;;;;;;7.73;3.43;;;;;;;-147.65;100.00;57646.63;10358768;28;20036;-83
2023/07/07 18:20:58;;;;;;;10.60;4.47;;;;;;;-147.65;100.00;57646.63;10365875;28;20038;-86
2023/07/07 18:25:58;;;;;;;12.33;3.40;;;;;;;-147.65;100.00;57646.63;10368722;28;20076;-84
2023/07/07 18:30:59;;;;;;;6.53;3.50;;;;;;;-147.65;100.00;57646.63;10308984;28;20052;-86
2023/07/07 18:35:59;;;;;;;5.87;3.27;;;;;;;-147.65;100.00;57646.63;10355511;28;20087;-87
2023/07/07 18:41:00;;;;;;;13.47;3.83;;;;;;;-147.65;100.00;57646.63;10357582;28;20038;-84
2023/07/07 18:46:00;;;;;;;57.60;38.73;;;;;;;-147.65;100.00;57646.63;10356592;28;20394;-83
2023/07/07 18:51:01;;;;;;;27.30;14.60;;;;;;;-147.65;100.00;57646.63;10359326;28;20045;-85
2023/07/07 18:56:02;;;;;;;8.23;3.30;;;;;;;-147.65;100.00;57646.63;10355691;28;20058;-85
2023/07/07 19:01:02;;;;;;;7.03;3.33;;;;;;;-147.65;100.00;57646.63;10354441;28;20050;-89
2023/07/07 19:06:03;;;;;;;7.65;2.97;;;;;;;-147.65;100.00;57646.63;10319498;28;20042;-83
2023/07/07 19:11:03;;;;;;;6.88;3.83;;;;;;;-147.65;100.00;57646.63;10357012;28;20034;-86
2023/07/07 19:16:26;;;;;;;7.68;3.72;;;;;;;-147.65;100.00;57646.63;10328141;28;20084;-83
2023/07/07 19:21:30;;;;;;;4.97;3.22;;;;;;;-147.65;100.00;57646.63;10314149;28;20393;-84
2023/07/07 19:26:33;;;;;;;7.35;4.30;;;;;;;-147.65;100.00;57646.63;10322875;28;20140;-86
2023/07/07 19:31:34;;;;;;;9.20;3.53;;;;;;;-147.65;100.00;57646.63;10337891;28;20034;-85
2023/07/07 19:36:40;;;;;;;8.32;3.78;;;;;;;-147.65;100.00;57646.63;10358095;28;20030;-87
2023/07/07 19:41:40;;;;;;;13.25;4.53;;;;;;;-147.65;100.00;57646.63;10288839;28;20046;-86
2023/07/07 19:46:42;;;;;;;5.97;3.88;;;;;;;-147.65;100.00;57646.63;10332131;28;20084;-87
2023/07/07 19:51:42;;;;;;;7.38;3.17;;;;;;;-147.65;100.00;57646.63;10342820;28;20072;-86
2023/07/07 19:56:44;;;;;;;7.05;3.20;;;;;;;-147.65;100.00;57646.63;10350418;28;20393;-87
2023/07/07 20:01:45;;;;;;;9.10;4.17;;;;;;;-147.65;100.00;57646.63;10332019;28;20535;-82
2023/07/07 20:06:46;;;;;;;9.77;3.65;;;;;;;-147.65;100.00;57646.63;10358599;28;20127;-83
2023/07/07 20:11:47;;;;;;;5.97;3.40;;;;;;;-147.65;100.00;57646.63;10358898;28;20433;-84
2023/07/07 20:16:49;;;;;;;4.53;2.95;;;;;;;-147.65;100.00;57646.63;10386122;28;20045;-83
2023/07/07 20:21:50;;;;;;;7.22;3.47;;;;;;;-147.65;100.00;57646.63;10345349;28;20039;-84
2023/07/07 20:26:51;;;;;;;7.83;3.37;;;;;;;-147.65;100.00;57646.63;10367579;28;20525;-83
2023/07/07 20:31:52;;;;;;;11.60;5.77;;;;;;;-147.65;100.00;57646.63;10345687;28;20054;-83
2023/07/07 20:36:52;;;;;;;14.25;4.28;;;;;;;-147.65;100.00;57646.63;10379098;28;20324;-83
2023/07/07 20:41:54;;;;;;;10.63;4.38;;;;;;;-147.65;100.00;57646.63;10365879;28;20076;-82
2023/07/07 20:46:55;;;;;;;5.53;3.47;;;;;;;-147.65;100.00;57646.63;10367533;28;20045;-82
2023/07/07 20:51:55;;;;;;;5.75;3.38;;;;;;;-147.65;100.00;57646.63;10367131;28;20434;-83
2023/07/07 20:56:56;;;;;;;6.25;3.05;;;;;;;-147.65;100.00;57646.63;10371327;28;20042;-83
2023/07/07 21:01:56;;;;;;;6.28;3.45;;;;;;;-147.65;100.00;57646.63;10365314;28;20120;-82
2023/07/07 21:06:57;;;;;;;10.35;4.10;;;;;;;-147.65;100.00;57646.63;10363174;28;20052;-82
2023/07/07 21:11:57;;;;;;;5.90;3.67;;;;;;;-147.65;100.00;57646.63;10363119;28;20080;-82
2023/07/07 21:16:58;;;;;;;6.88;4.00;;;;;;;-147.65;100.00;57646.63;10362816;28;20079;-84
2023/07/07 21:21:58;;;;;;;4.20;2.90;;;;;;;-147.65;100.00;57646.63;10364056;28;20042;-83
2023/07/07 21:26:59;;;;;;;7.03;3.25;;;;;;;-147.65;100.00;57646.63;10363989;28;20050;-83
2023/07/07 21:31:59;;;;;;;7.38;3.95;;;;;;;-147.65;100.00;57646.63;10360365;28;20394;-83
2023/07/07 21:37:00;;;;;;;6.18;3.78;;;;;;;-147.65;100.00;57646.63;10363839;28;20089;-83
2023/07/07 21:42:01;;;;;;;7.93;4.35;;;;;;;-147.65;100.00;57646.63;10363866;28;20053;-83
2023/07/07 21:47:01;;;;;;;8.50;2.83;;;;;;;-147.65;100.00;57646.63;10359558;28;20049;-84
2023/07/07 21:52:09;;;;;;;6.13;3.00;;;;;;;-147.65;100.00;57646.63;10357252;28;20532;-83
2023/07/07 21:57:36;;;;;;;8.68;3.45;;;;;;;-147.65;100.00;57646.63;10316259;28;20112;-83
2023/07/07 22:02:36;;;;;;;9.05;3.47;;;;;;;-147.65;100.00;57646.63;10320853;28;20486;-84
2023/07/07 22:07:37;;;;;;;5.50;3.25;;;;;;;-147.65;100.00;57646.63;10321850;28;20038;-83
2023/07/07 22:12:37;;;;;;;8.40;4.15;;;;;;;-147.65;100.00;57646.63;10322047;28;20429;-84
2023/07/07 22:17:39;;;;;;;9.45;3.13;;;;;;;-147.65;100.00;57646.63;10354059;28;20363;-84
2023/07/07 22:22:40;;;;;;;6.55;3.60;;;;;;;-147.65;100.00;57646.63;10344316;28;20041;-84
2023/07/07 22:27:40;;;;;;;8.00;3.63;;;;;;;-147.65;100.00;57646.63;10357497;28;20042;-83
2023/07/07 22:32:41;;;;;;;7.22;3.72;;;;;;;-147.65;100.00;57646.63;10361193;28;20069;-83
2023/07/07 22:37:41;;;;;;;7.88;3.88;;;;;;;-147.65;100.00;57646.63;10361247;28;20129;-84
2023/07/07 22:42:42;;;;;;;8.88;3.30;;;;;;;-147.65;100.00;57646.63;10359739;28;20088;-84
2023/07/07 22:47:43;;;;;;;8.88;3.47;;;;;;;-147.65;100.00;57646.63;10343994;28;20121;-83